Time;durP1;ratioP1;P1;durP2;ratioP2;P2;SDS_P1;SDS_P2;PMS_P1;PMS_P2;Temp;Humidity;BMP_temperature;BMP_pressure;BME280_temperature;BME280_humidity;BME280_pressure;Samples;Min_cycle;Max_cycle;Signal;HPM_P1;HPM_P2
2023/07/02 04:02:16;;;;;;;2.53;1.53;;;18.00;83.60;;;;;;5256909;23;20520;-73
2023/07/02 04:04:43;;;;;;;2.93;1.70;;;18.00;83.70;;;;;;4993483;28;20861;-73
2023/07/02 04:07:09;;;;;;;2.97;1.77;;;18.00;83.60;;;;;;4993693;28;20452;-74
2023/07/02 04:09:36;;;;;;;2.33;1.77;;;18.00;83.90;;;;;;4993759;28;20449;-73
2023/07/02 04:12:03;;;;;;;2.57;1.40;;;18.10;83.70;;;;;;4993627;28;20461;-73
2023/07/02 04:14:29;;;;;;;2.53;1.50;;;18.10;83.60;;;;;;5017053;23;20459;-74
2023/07/02 04:16:56;;;;;;;2.20;1.43;;;18.00;83.70;;;;;;4993679;28;20433;-74
2023/07/02 04:19:24;;;;;;;2.70;1.67;;;18.10;83.70;;;;;;4993472;28;20500;-74
2023/07/02 04:21:51;;;;;;;2.97;1.67;;;18.20;83.50;;;;;;4993570;28;20452;-75
2023/07/02 04:24:17;;;;;;;3.60;2.53;;;18.20;83.10;;;;;;4993485;28;20480;-75
2023/07/02 04:26:44;;;;;;;4.20;1.73;;;18.30;83.20;;;;;;4993466;28;20453;-74
2023/07/02 04:29:11;;;;;;;3.60;1.63;;;18.40;82.80;;;;;;4993427;28;20445;-74
2023/07/02 04:31:38;;;;;;;3.00;1.70;;;18.40;82.70;;;;;;4993456;28;20537;-75
2023/07/02 04:34:05;;;;;;;3.10;1.70;;;18.40;82.60;;;;;;4993410;28;20445;-74
2023/07/02 04:36:33;;;;;;;2.50;2.00;;;18.40;82.60;;;;;;4993385;28;20501;-75
2023/07/02 04:39:00;;;;;;;2.70;1.70;;;18.40;82.20;;;;;;4993353;28;20453;-74
2023/07/02 04:41:29;;;;;;;3.20;1.80;;;18.30;82.30;;;;;;4993283;28;20539;-74
2023/07/02 04:43:56;;;;;;;2.90;1.43;;;18.30;82.60;;;;;;4993346;28;20512;-74
2023/07/02 04:46:23;;;;;;;2.90;1.83;;;18.40;82.50;;;;;;4995100;28;20528;-74
2023/07/02 04:48:49;;;;;;;2.30;1.70;;;18.60;82.20;;;;;;4996910;28;20445;-74
2023/07/02 04:51:16;;;;;;;2.67;1.90;;;18.60;82.20;;;;;;4996872;28;20452;-74
2023/07/02 04:53:44;;;;;;;2.97;1.60;;;18.70;82.00;;;;;;4996453;28;20983;-74
2023/07/02 04:56:10;;;;;;;3.20;1.80;;;18.80;81.60;;;;;;4996630;28;20469;-74
2023/07/02 04:58:37;;;;;;;3.00;1.67;;;19.00;81.30;;;;;;4996658;28;20453;-74
2023/07/02 05:01:04;;;;;;;2.93;1.73;;;19.10;80.70;;;;;;4996539;28;20485;-74
2023/07/02 05:03:31;;;;;;;2.10;1.50;;;19.20;80.50;;;;;;4996569;28;20449;-74
2023/07/02 05:05:58;;;;;;;3.77;1.90;;;19.40;80.50;;;;;;4996204;28;20473;-74
2023/07/02 05:08:24;;;;;;;4.20;1.30;;;19.50;80.10;;;;;;4996468;28;20825;-74
2023/07/02 05:10:52;;;;;;;2.30;1.50;;;19.60;79.80;;;;;;4996421;28;20453;-74
2023/07/02 05:13:19;;;;;;;2.57;1.43;;;19.60;78.70;;;;;;4996385;28;20450;-73
2023/07/02 05:15:46;;;;;;;2.20;1.60;;;19.60;78.80;;;;;;4995911;28;20476;-73
2023/07/02 05:18:13;;;;;;;3.07;1.90;;;19.50;79.00;;;;;;4996379;28;20515;-75
2023/07/02 05:20:39;;;;;;;3.83;1.73;;;19.50;78.40;;;;;;4995898;28;21009;-75
2023/07/02 05:23:06;;;;;;;2.63;1.53;;;19.60;78.50;;;;;;4996043;28;20508;-74
2023/07/02 05:25:33;;;;;;;2.57;2.10;;;19.40;78.40;;;;;;4996217;28;20469;-75
2023/07/02 05:28:01;;;;;;;3.37;2.07;;;19.10;78.50;;;;;;4996142;28;20449;-75
2023/07/02 05:30:28;;;;;;;2.40;1.60;;;19.00;79.60;;;;;;4996071;28;20450;-75
2023/07/02 05:32:54;;;;;;;4.73;2.20;;;19.00;79.40;;;;;;4996037;28;20457;-76
2023/07/02 05:35:21;;;;;;;2.60;1.60;;;19.10;79.60;;;;;;4995883;28;20481;-76
2023/07/02 05:37:48;;;;;;;2.57;2.00;;;18.80;79.80;;;;;;4995971;28;20453;-76
2023/07/02 05:40:14;;;;;;;3.30;2.37;;;18.80;80.00;;;;;;4995805;28;20548;-76
2023/07/02 05:42:42;;;;;;;3.47;2.10;;;18.80;79.50;;;;;;4995568;28;20449;-75
2023/07/02 05:45:11;;;;;;;3.70;2.10;;;18.80;79.70;;;;;;4995738;28;20501;-77
2023/07/02 05:47:38;;;;;;;2.80;1.80;;;19.00;79.80;;;;;;4995828;28;20441;-76
2023/07/02 05:50:05;;;;;;;3.20;1.80;;;19.10;79.00;;;;;;4995691;28;20453;-75
2023/07/02 05:52:32;;;;;;;4.13;2.70;;;19.30;78.90;;;;;;4995699;28;20452;-75
2023/07/02 05:54:58;;;;;;;4.30;2.43;;;19.40;78.00;;;;;;4995600;28;20516;-75
2023/07/02 05:57:25;;;;;;;4.17;1.90;;;19.60;77.90;;;;;;4995557;28;20480;-75
2023/07/02 05:59:52;;;;;;;2.60;1.97;;;19.90;77.40;;;;;;4995488;28;20449;-75
2023/07/02 06:02:20;;;;;;;3.50;2.20;;;20.20;76.20;;;;;;4995467;28;20453;-75
2023/07/02 06:04:46;;;;;;;3.13;2.00;;;20.40;75.90;;;;;;4995352;28;20520;-75
2023/07/02 06:07:13;;;;;;;3.40;2.70;;;20.50;74.20;;;;;;4995365;28;20453;-75
2023/07/02 06:09:40;;;;;;;4.33;2.97;;;20.60;73.70;;;;;;4995353;28;20454;-75
2023/07/02 06:12:07;;;;;;;3.50;2.33;;;20.70;74.80;;;;;;4995326;28;20449;-75
2023/07/02 06:14:33;;;;;;;3.23;2.40;;;21.00;74.20;;;;;;4994974;28;20532;-76
2023/07/02 06:17:00;;;;;;;4.40;3.23;;;21.20;73.40;;;;;;4994945;28;20451;-75
2023/07/02 06:19:28;;;;;;;4.40;2.60;;;21.10;72.30;;;;;;4995172;28;20511;-75
2023/07/02 06:21:55;;;;;;;2.97;2.67;;;21.10;71.90;;;;;;4995050;28;20477;-76
2023/07/02 06:24:22;;;;;;;4.00;2.73;;;21.10;72.20;;;;;;4995008;28;20460;-75
2023/07/02 06:26:48;;;;;;;3.20;2.60;;;21.20;72.10;;;;;;4995014;28;20449;-75
2023/07/02 06:29:15;;;;;;;4.00;3.60;;;21.40;71.80;;;;;;4995236;28;20457;-73
2023/07/02 06:31:41;;;;;;;5.70;2.90;;;21.50;71.80;;;;;;4995018;28;20864;-74
2023/07/02 06:34:08;;;;;;;4.00;3.60;;;21.70;70.30;;;;;;4994907;28;20461;-73
2023/07/02 06:36:36;;;;;;;3.63;3.10;;;21.80;70.40;;;;;;4994915;28;20450;-74
2023/07/02 06:39:03;;;;;;;4.90;3.70;;;21.80;69.30;;;;;;4994951;28;20456;-75
2023/07/02 06:41:30;;;;;;;5.23;4.10;;;21.70;69.70;;;;;;4994382;28;21022;-75
2023/07/02 06:43:56;;;;;;;4.87;4.00;;;21.80;68.60;;;;;;4994403;28;20997;-75
2023/07/02 06:46:23;;;;;;;5.50;4.20;;;21.90;69.20;;;;;;4994349;28;20473;-74
2023/07/02 06:48:50;;;;;;;4.30;3.60;;;21.80;68.60;;;;;;4994346;28;20929;-76
2023/07/02 06:51:16;;;;;;;9.07;4.67;;;21.70;69.40;;;;;;4994256;28;20942;-75
2023/07/02 06:53:45;;;;;;;6.40;4.80;;;21.40;69.50;;;;;;4994301;28;20949;-75
2023/07/02 06:56:12;;;;;;;4.70;3.83;;;21.20;70.40;;;;;;4994440;28;20469;-74
2023/07/02 06:58:40;;;;;;;5.43;4.57;;;21.30;70.40;;;;;;4994198;28;20951;-75
2023/07/02 07:01:07;;;;;;;4.33;3.87;;;21.40;70.00;;;;;;4994485;28;20575;-74
2023/07/02 07:03:35;;;;;;;5.10;4.00;;;21.40;70.10;;;;;;4994388;28;20453;-76
2023/07/02 07:06:02;;;;;;;5.77;4.50;;;21.40;70.10;;;;;;4993944;28;21089;-76
2023/07/02 07:08:29;;;;;;;4.93;4.43;;;21.30;70.00;;;;;;4993873;28;20508;-75
2023/07/02 07:10:57;;;;;;;5.10;4.60;;;21.00;70.70;;;;;;4994229;28;20823;-75
2023/07/02 07:13:23;;;;;;;5.70;4.70;;;21.20;70.60;;;;;;4994170;28;20449;-75
2023/07/02 07:15:50;;;;;;;5.63;4.47;;;21.30;70.60;;;;;;4993673;28;20560;-75
2023/07/02 07:18:18;;;;;;;5.33;4.83;;;21.20;69.70;;;;;;4994107;28;20453;-75
2023/07/02 07:20:44;;;;;;;5.53;4.80;;;21.30;69.40;;;;;;4994039;28;20484;-75
2023/07/02 07:23:11;;;;;;;4.87;4.37;;;21.50;69.70;;;;;;4994250;28;20461;-75
2023/07/02 07:25:38;;;;;;;5.43;4.73;;;21.90;68.80;;;;;;4993959;28;20527;-75
2023/07/02 07:28:06;;;;;;;5.90;5.40;;;22.10;67.50;;;;;;4993996;28;20446;-76
2023/07/02 07:30:33;;;;;;;5.90;5.30;;;22.40;66.40;;;;;;4993975;28;20449;-74
2023/07/02 07:32:59;;;;;;;6.00;4.63;;;22.80;66.70;;;;;;4993949;28;20449;-74
2023/07/02 07:35:26;;;;;;;5.93;5.23;;;23.00;65.30;;;;;;4993794;28;20524;-75
2023/07/02 07:37:52;;;;;;;6.20;4.60;;;23.00;65.60;;;;;;4993872;28;20503;-76
2023/07/02 07:40:19;;;;;;;5.90;5.30;;;22.90;64.90;;;;;;4993822;28;20452;-75
2023/07/02 07:42:46;;;;;;;6.07;5.57;;;22.80;65.10;;;;;;4993816;28;20457;-75
2023/07/02 07:45:14;;;;;;;7.83;5.40;;;22.80;64.40;;;;;;4994364;28;20468;-75
2023/07/02 07:47:41;;;;;;;5.47;4.93;;;22.80;65.20;;;;;;4994325;28;20449;-76
2023/07/02 07:50:10;;;;;;;5.33;4.83;;;22.90;64.10;;;;;;4993766;28;20973;-75
2023/07/02 07:52:38;;;;;;;6.53;5.93;;;23.00;64.20;;;;;;4993932;28;20489;-75
2023/07/02 07:55:05;;;;;;;5.40;4.90;;;23.30;63.10;;;;;;4993719;28;20474;-76
2023/07/02 07:57:32;;;;;;;5.90;5.30;;;23.50;63.80;;;;;;4993761;28;20456;-76
2023/07/02 07:59:58;;;;;;;6.17;5.57;;;23.30;62.30;;;;;;4993690;28;20449;-75
2023/07/02 08:02:26;;;;;;;7.47;5.20;;;23.20;62.30;;;;;;4993601;28;20492;-75
2023/07/02 08:04:53;;;;;;;6.77;6.07;;;23.10;62.20;;;;;;4993595;28;20477;-74
2023/07/02 08:07:20;;;;;;;5.60;5.07;;;22.90;62.30;;;;;;4993590;28;20491;-75
2023/07/02 08:09:47;;;;;;;6.97;6.30;;;22.90;62.50;;;;;;4993607;28;20457;-75
2023/07/02 08:12:13;;;;;;;6.53;5.37;;;23.00;62.30;;;;;;4993601;28;20445;-75
2023/07/02 08:14:40;;;;;;;7.00;6.10;;;23.00;62.50;;;;;;4993363;28;20484;-74
2023/07/02 08:17:07;;;;;;;6.67;6.07;;;23.00;61.10;;;;;;4993571;28;20489;-75
2023/07/02 08:19:35;;;;;;;5.90;5.30;;;22.70;61.30;;;;;;4993574;28;20453;-74
2023/07/02 08:22:02;;;;;;;8.17;5.90;;;22.80;62.90;;;;;;4996426;28;20539;-75
2023/07/02 08:24:30;;;;;;;7.50;6.47;;;23.10;61.50;;;;;;4997230;28;20485;-75
2023/07/02 08:26:57;;;;;;;5.53;5.00;;;23.00;61.70;;;;;;4997275;28;20460;-75
2023/07/02 08:29:24;;;;;;;7.00;6.00;;;23.00;61.60;;;;;;4997236;28;20825;-77
2023/07/02 08:31:50;;;;;;;5.73;5.23;;;23.10;61.40;;;;;;4997212;28;20454;-77
2023/07/02 08:34:17;;;;;;;6.03;5.43;;;23.10;60.20;;;;;;4997013;28;20522;-75
2023/07/02 08:36:45;;;;;;;7.60;6.10;;;23.20;60.60;;;;;;4997115;28;20471;-76
2023/07/02 08:39:12;;;;;;;7.97;5.67;;;23.10;61.10;;;;;;4996992;28;20457;-76
2023/07/02 08:41:45;;;;;;;6.40;5.80;;;23.30;61.00;;;;;;4996935;28;20547;-76
2023/07/02 08:44:13;;;;;;;5.83;5.33;;;22.80;59.50;;;;;;4996562;28;20822;-77
2023/07/02 08:46:41;;;;;;;5.80;5.00;;;22.50;61.00;;;;;;4996920;28;20484;-77
2023/07/02 08:49:07;;;;;;;6.20;5.60;;;22.50;61.00;;;;;;4996820;28;20873;-76
2023/07/02 08:51:34;;;;;;;6.27;5.70;;;22.30;61.30;;;;;;4996826;28;20449;-76
2023/07/02 08:54:03;;;;;;;6.50;5.67;;;22.20;61.10;;;;;;4996837;28;20456;-76
2023/07/02 08:56:29;;;;;;;6.70;6.03;;;22.20;61.10;;;;;;4996864;28;20880;-76
2023/07/02 08:58:56;;;;;;;6.83;6.07;;;22.10;61.60;;;;;;4996346;28;20449;-77
2023/07/02 09:01:23;;;;;;;7.10;5.00;;;22.00;61.40;;;;;;4996548;28;20544;-76
2023/07/02 09:03:50;;;;;;;6.57;4.80;;;22.10;61.40;;;;;;4996576;28;20449;-76
2023/07/02 09:06:19;;;;;;;5.07;4.53;;;22.00;61.90;;;;;;4996429;28;20476;-76
2023/07/02 09:08:46;;;;;;;5.43;4.70;;;22.20;60.70;;;;;;4996469;28;20453;-76
2023/07/02 09:11:16;;;;;;;7.20;5.90;;;22.50;59.60;;;;;;4997002;28;20449;-77
2023/07/02 09:13:45;;;;;;;5.50;5.00;;;22.50;59.10;;;;;;4997273;28;20499;-76
2023/07/02 09:16:22;;;;;;;6.33;4.90;;;22.60;61.00;;;;;;4995983;28;20921;-77
2023/07/02 09:18:57;;;;;;;6.50;5.87;;;22.70;59.70;;;;;;4996370;28;20453;-76
2023/07/02 09:21:26;;;;;;;5.07;4.60;;;22.70;58.50;;;;;;4996190;28;20479;-76
2023/07/02 09:23:52;;;;;;;4.97;4.47;;;22.80;59.20;;;;;;4995898;28;20859;-76
2023/07/02 09:26:24;;;;;;;5.73;5.23;;;22.90;60.00;;;;;;4996135;28;20536;-77
2023/07/02 09:28:51;;;;;;;5.73;4.57;;;22.90;59.60;;;;;;4995844;28;20971;-76
2023/07/02 09:31:18;;;;;;;5.23;4.73;;;23.00;59.50;;;;;;4995748;28;20508;-76
2023/07/02 09:33:44;;;;;;;6.70;6.03;;;23.20;59.50;;;;;;4996096;28;20449;-76
2023/07/02 09:36:12;;;;;;;5.30;4.80;;;23.30;59.10;;;;;;4995940;28;20539;-76
2023/07/02 09:38:40;;;;;;;4.83;4.33;;;23.40;59.00;;;;;;4995983;28;20480;-76
2023/07/02 09:41:08;;;;;;;5.07;4.57;;;23.70;58.50;;;;;;4995875;28;20504;-77
2023/07/02 09:43:36;;;;;;;6.67;5.10;;;23.70;57.90;;;;;;4995587;28;20454;-77
2023/07/02 09:46:03;;;;;;;6.17;5.63;;;23.90;57.20;;;;;;4995811;28;20922;-77
2023/07/02 09:48:35;;;;;;;6.27;5.77;;;24.00;56.80;;;;;;4995484;28;21000;-76
2023/07/02 09:51:02;;;;;;;5.63;5.03;;;24.10;56.80;;;;;;4996565;28;20889;-77
2023/07/02 09:53:29;;;;;;;6.40;5.80;;;24.10;58.30;;;;;;4995276;28;21012;-76
2023/07/02 09:55:57;;;;;;;6.67;6.07;;;24.10;56.70;;;;;;4995270;28;21009;-77
2023/07/02 09:58:23;;;;;;;6.80;6.20;;;24.10;56.90;;;;;;4995587;28;20818;-76
2023/07/02 10:00:52;;;;;;;5.60;5.10;;;23.90;55.90;;;;;;4995533;28;20456;-77
2023/07/02 10:03:29;;;;;;;7.43;6.40;;;23.30;57.90;;;;;;4995493;28;20488;-77
2023/07/02 10:06:04;;;;;;;9.70;6.53;;;23.00;58.90;;;;;;4995404;28;20878;-76
2023/07/02 10:08:31;;;;;;;7.23;6.03;;;23.20;58.40;;;;;;4995153;28;20918;-76
2023/07/02 10:11:09;;;;;;;7.80;7.10;;;23.30;58.40;;;;;;4995086;28;20942;-76
2023/07/02 10:13:36;;;;;;;7.33;6.63;;;23.40;58.50;;;;;;4995351;28;20492;-76
2023/07/02 10:16:04;;;;;;;8.80;8.00;;;23.60;57.70;;;;;;4995220;28;20485;-76
2023/07/02 10:18:31;;;;;;;6.33;5.73;;;23.80;55.40;;;;;;4995159;28;20470;-76
2023/07/02 10:20:58;;;;;;;7.20;6.57;;;23.90;56.10;;;;;;4995168;28;20456;-77
2023/07/02 10:23:36;;;;;;;7.00;6.07;;;23.90;54.00;;;;;;4995227;28;20512;-76
2023/07/02 10:26:15;;;;;;;6.97;6.37;;;23.80;55.80;;;;;;4994753;28;21052;-76
2023/07/02 10:28:42;;;;;;;6.33;5.83;;;23.80;55.10;;;;;;4995087;28;20901;-75
2023/07/02 10:31:20;;;;;;;6.60;5.70;;;23.90;54.50;;;;;;4994954;28;20452;-76
2023/07/02 10:33:47;;;;;;;6.60;6.00;;;24.00;54.30;;;;;;4994966;28;20838;-76
2023/07/02 10:36:21;;;;;;;6.83;6.20;;;24.10;54.20;;;;;;4994936;28;20480;-76
2023/07/02 10:38:48;;;;;;;6.30;5.70;;;24.00;55.20;;;;;;4994828;28;20448;-75
2023/07/02 10:41:25;;;;;;;8.43;5.97;;;24.10;55.00;;;;;;4994876;28;20449;-77
2023/07/02 10:43:52;;;;;;;6.43;5.93;;;24.10;53.50;;;;;;4994153;28;20495;-76
2023/07/02 10:46:23;;;;;;;6.37;5.87;;;24.20;55.10;;;;;;4994734;28;20532;-76
2023/07/02 10:48:53;;;;;;;6.60;5.90;;;24.10;54.30;;;;;;4994614;28;20453;-75
2023/07/02 10:51:21;;;;;;;7.50;6.80;;;24.10;54.50;;;;;;4994565;28;20484;-76
2023/07/02 10:53:56;;;;;;;6.97;6.37;;;24.30;53.70;;;;;;4994246;28;20810;-75
2023/07/02 10:56:23;;;;;;;7.00;6.30;;;24.40;53.80;;;;;;4994136;28;20519;-75
2023/07/02 10:58:51;;;;;;;7.70;6.30;;;24.40;54.10;;;;;;4994437;28;20476;-76
2023/07/02 11:01:24;;;;;;;6.10;5.57;;;24.40;53.90;;;;;;4994286;28;20445;-76
2023/07/02 11:03:57;;;;;;;6.27;5.67;;;24.50;52.40;;;;;;4994138;28;20903;-76
2023/07/02 11:06:24;;;;;;;6.10;5.53;;;24.50;52.40;;;;;;4994048;28;21025;-76
2023/07/02 11:08:51;;;;;;;6.57;5.40;;;24.90;52.90;;;;;;4994260;28;20445;-76
2023/07/02 11:11:18;;;;;;;8.17;6.23;;;25.00;50.40;;;;;;4993899;28;20857;-75
2023/07/02 11:13:49;;;;;;;6.73;5.80;;;25.30;50.40;;;;;;4994227;28;20449;-75
2023/07/02 11:16:26;;;;;;;5.50;5.10;;;25.40;50.00;;;;;;4993663;28;21065;-75
2023/07/02 11:18:54;;;;;;;8.20;5.60;;;25.40;50.20;;;;;;4994211;28;20441;-76
2023/07/02 11:21:20;;;;;;;5.87;5.37;;;25.40;50.50;;;;;;4994065;28;20528;-75
2023/07/02 11:23:47;;;;;;;6.00;5.40;;;25.40;50.70;;;;;;4994052;28;20449;-76
2023/07/02 11:26:14;;;;;;;5.70;5.10;;;25.50;47.90;;;;;;4994020;28;20473;-76
2023/07/02 11:28:50;;;;;;;6.07;5.57;;;25.50;48.40;;;;;;4994045;28;20456;-76
2023/07/02 11:31:27;;;;;;;6.13;5.63;;;25.70;50.10;;;;;;4994068;28;20525;-76
2023/07/02 11:33:53;;;;;;;6.60;6.00;;;25.80;50.70;;;;;;4994058;28;20476;-76
2023/07/02 11:36:22;;;;;;;7.10;5.80;;;25.70;48.60;;;;;;4993550;28;20982;-76
2023/07/02 11:38:50;;;;;;;6.60;5.90;;;25.80;50.00;;;;;;4993882;28;20456;-76
2023/07/02 11:41:17;;;;;;;5.70;5.20;;;26.00;50.70;;;;;;4993879;28;20480;-76
2023/07/02 11:43:43;;;;;;;6.60;5.87;;;26.00;47.80;;;;;;4993875;28;20911;-75
2023/07/02 11:46:10;;;;;;;7.03;6.40;;;26.10;48.60;;;;;;4993457;28;21057;-76
2023/07/02 11:48:38;;;;;;;6.20;5.63;;;26.00;47.20;;;;;;4993829;28;20499;-75
2023/07/02 11:51:05;;;;;;;6.20;5.60;;;25.80;47.90;;;;;;4993791;28;20445;-75
2023/07/02 11:53:32;;;;;;;6.47;5.90;;;25.70;47.70;;;;;;4993699;28;20496;-75
2023/07/02 11:55:58;;;;;;;6.40;5.80;;;25.70;49.10;;;;;;4996770;28;20531;-76
2023/07/02 11:58:25;;;;;;;5.40;4.90;;;25.70;49.20;;;;;;4998551;28;20500;-76
2023/07/02 12:00:52;;;;;;;5.83;5.23;;;25.80;48.90;;;;;;4997778;28;20504;-76
2023/07/02 12:03:18;;;;;;;6.50;5.93;;;25.90;47.90;;;;;;4997599;28;20480;-75
2023/07/02 12:05:46;;;;;;;6.10;5.60;;;26.10;47.50;;;;;;4997589;28;20477;-76
2023/07/02 12:08:13;;;;;;;5.63;5.10;;;26.10;46.80;;;;;;4997574;28;20449;-76
2023/07/02 12:10:40;;;;;;;5.17;4.67;;;26.00;47.00;;;;;;4997558;28;20449;-75
2023/07/02 12:13:07;;;;;;;5.43;4.93;;;26.10;47.80;;;;;;4997529;28;20441;-76
2023/07/02 12:15:34;;;;;;;6.03;5.43;;;26.30;48.70;;;;;;4997136;28;20536;-75
2023/07/02 12:18:00;;;;;;;7.80;5.80;;;26.60;46.80;;;;;;4997436;28;20449;-75
2023/07/02 12:20:27;;;;;;;5.70;5.20;;;26.90;45.40;;;;;;4997374;28;20453;-75
2023/07/02 12:22:55;;;;;;;5.60;5.10;;;27.00;45.60;;;;;;4997283;28;20500;-77
2023/07/02 12:25:22;;;;;;;5.83;5.33;;;27.10;47.20;;;;;;4997194;28;20542;-77
2023/07/02 12:27:48;;;;;;;4.73;4.43;;;27.00;44.50;;;;;;4997224;28;20471;-77
2023/07/02 12:30:17;;;;;;;6.37;5.80;;;27.00;45.50;;;;;;4996864;28;20864;-76
2023/07/02 12:32:44;;;;;;;5.80;5.30;;;27.10;47.20;;;;;;4997181;28;20445;-77
2023/07/02 12:35:10;;;;;;;5.47;4.97;;;27.10;45.70;;;;;;4997011;28;20473;-77
2023/07/02 12:37:44;;;;;;;5.77;5.17;;;26.90;44.50;;;;;;4997174;28;20507;-77
2023/07/02 12:40:13;;;;;;;6.67;6.07;;;26.90;45.00;;;;;;4997096;28;20434;-78
2023/07/02 12:42:39;;;;;;;5.93;5.40;;;26.90;44.90;;;;;;4997268;28;20481;-78
2023/07/02 12:45:07;;;;;;;5.93;5.23;;;26.80;45.70;;;;;;4998108;28;20473;-79
2023/07/02 12:47:34;;;;;;;6.33;5.73;;;26.70;46.00;;;;;;5000022;28;20453;-75
2023/07/02 12:50:01;;;;;;;6.30;5.70;;;26.70;46.10;;;;;;5000844;28;20488;-76
2023/07/02 12:52:29;;;;;;;5.53;5.03;;;26.70;46.50;;;;;;5009538;28;20458;-82
2023/07/02 12:54:55;;;;;;;6.60;5.43;;;26.90;46.20;;;;;;5010208;28;20465;-78
2023/07/02 12:57:23;;;;;;;5.87;5.40;;;26.80;44.80;;;;;;5009328;28;20452;-78
2023/07/02 12:59:50;;;;;;;5.43;4.93;;;26.90;44.80;;;;;;5005478;28;20820;-79
2023/07/02 13:02:17;;;;;;;6.33;5.77;;;27.20;46.00;;;;;;5005110;28;20543;-80
2023/07/02 13:04:43;;;;;;;5.33;4.70;;;27.40;45.20;;;;;;5000658;28;20472;-79
2023/07/02 13:07:10;;;;;;;7.17;5.20;;;27.60;44.30;;;;;;4998998;28;20503;-77
2023/07/02 13:09:37;;;;;;;6.20;5.70;;;27.60;42.50;;;;;;4998101;28;20453;-76
2023/07/02 13:12:04;;;;;;;5.90;5.40;;;27.70;44.00;;;;;;4996540;28;20452;-74
2023/07/02 13:14:32;;;;;;;5.70;5.20;;;27.80;43.30;;;;;;4996956;28;20535;-77
2023/07/02 13:16:59;;;;;;;5.93;5.40;;;27.90;41.60;;;;;;4997823;28;20433;-76
2023/07/02 13:19:25;;;;;;;5.93;5.33;;;27.90;42.60;;;;;;4998488;28;20505;-78
2023/07/02 13:21:52;;;;;;;4.93;4.53;;;27.80;42.70;;;;;;4998689;28;20449;-79
2023/07/02 13:24:19;;;;;;;5.17;4.70;;;27.70;42.60;;;;;;4999943;28;20481;-79
2023/07/02 13:26:46;;;;;;;5.50;5.00;;;27.30;42.30;;;;;;4998629;28;20448;-78
2023/07/02 13:29:12;;;;;;;5.87;5.37;;;26.80;41.70;;;;;;4997670;28;20452;-78
2023/07/02 13:31:40;;;;;;;7.77;5.40;;;26.60;43.40;;;;;;4996150;28;20503;-77
2023/07/02 13:34:07;;;;;;;5.70;5.10;;;26.80;44.00;;;;;;4997362;28;20855;-73
2023/07/02 13:36:34;;;;;;;5.90;5.00;;;27.00;43.70;;;;;;4996309;28;20473;-76
2023/07/02 13:39:00;;;;;;;5.67;5.07;;;27.10;42.50;;;;;;4996493;28;20795;-77
2023/07/02 13:41:30;;;;;;;6.23;5.63;;;26.70;42.90;;;;;;4995866;28;20836;-74
2023/07/02 13:43:57;;;;;;;5.50;4.37;;;26.90;43.30;;;;;;4997262;28;20520;-77
2023/07/02 13:46:23;;;;;;;6.00;5.50;;;27.00;42.90;;;;;;4996388;28;20889;-76
2023/07/02 13:48:51;;;;;;;5.23;4.73;;;27.20;42.60;;;;;;4997719;28;20478;-76
2023/07/02 13:51:18;;;;;;;5.33;4.60;;;27.30;43.20;;;;;;4996387;28;20530;-78
2023/07/02 13:53:45;;;;;;;6.00;5.20;;;27.70;43.20;;;;;;4996094;28;20449;-75
2023/07/02 13:56:12;;;;;;;6.33;5.33;;;27.80;42.20;;;;;;4996453;28;20476;-75
2023/07/02 13:59:01;;;;;;;5.70;5.20;;;28.00;42.80;;;;;;4996402;28;20821;-79
2023/07/02 14:01:27;;;;;;;5.43;4.93;;;28.20;43.40;;;;;;4995951;28;20437;-77
2023/07/02 14:03:54;;;;;;;5.77;5.30;;;28.10;41.40;;;;;;4995618;28;20924;-75
2023/07/02 14:06:21;;;;;;;6.00;5.50;;;28.00;41.30;;;;;;4995200;28;20628;-76
2023/07/02 14:08:48;;;;;;;6.03;5.53;;;27.80;42.20;;;;;;4995440;28;20878;-76
2023/07/02 14:11:14;;;;;;;4.57;4.17;;;27.90;42.20;;;;;;4995312;28;20453;-76
2023/07/02 14:13:41;;;;;;;6.30;5.80;;;28.20;43.50;;;;;;4995288;28;20516;-76
2023/07/02 14:16:09;;;;;;;6.07;5.47;;;28.50;41.30;;;;;;4994697;28;21017;-76
2023/07/02 14:18:36;;;;;;;5.90;5.40;;;28.60;41.20;;;;;;4993830;28;20803;-76
2023/07/02 14:21:03;;;;;;;6.57;5.77;;;28.40;40.70;;;;;;4994841;28;20452;-76
2023/07/02 14:23:30;;;;;;;5.30;4.80;;;28.20;40.30;;;;;;4994678;28;20881;-76
2023/07/02 14:25:56;;;;;;;5.77;5.20;;;27.80;42.00;;;;;;4994641;28;20994;-76
2023/07/02 14:28:25;;;;;;;6.17;5.60;;;27.90;42.70;;;;;;4994990;28;20445;-76
2023/07/02 14:30:57;;;;;;;5.50;5.00;;;27.90;41.90;;;;;;4994928;28;20500;-76
2023/07/02 14:33:25;;;;;;;6.23;5.63;;;28.10;42.90;;;;;;4994898;28;20520;-76
2023/07/02 14:35:52;;;;;;;5.63;5.17;;;28.40;42.40;;;;;;4994663;28;20473;-76
2023/07/02 14:38:19;;;;;;;6.00;5.50;;;28.50;41.80;;;;;;4994773;28;20446;-73
2023/07/02 14:40:46;;;;;;;6.70;6.10;;;28.60;41.20;;;;;;4994715;28;20449;-73
2023/07/02 14:43:12;;;;;;;5.33;4.93;;;28.60;41.60;;;;;;4994534;28;20535;-74
2023/07/02 14:45:46;;;;;;;5.93;5.43;;;28.60;41.70;;;;;;4994500;28;20515;-72
2023/07/02 14:48:12;;;;;;;5.40;5.00;;;28.90;41.60;;;;;;4994780;28;20507;-73
2023/07/02 14:50:49;;;;;;;6.00;5.50;;;29.20;42.10;;;;;;4994576;28;20461;-72
2023/07/02 14:53:16;;;;;;;6.30;5.70;;;29.30;40.40;;;;;;4994579;28;20480;-73
2023/07/02 14:55:43;;;;;;;6.30;5.80;;;29.00;41.00;;;;;;4994132;28;20982;-72
2023/07/02 14:58:11;;;;;;;5.97;5.47;;;29.00;41.50;;;;;;4994470;28;20453;-73
2023/07/02 15:00:43;;;;;;;5.70;5.20;;;28.70;42.30;;;;;;4994473;28;20489;-74
2023/07/02 15:03:10;;;;;;;6.57;6.00;;;28.60;41.30;;;;;;4994284;28;20470;-72
2023/07/02 15:05:36;;;;;;;7.07;6.47;;;28.50;43.10;;;;;;4994283;28;20562;-72
2023/07/02 15:08:04;;;;;;;7.13;6.53;;;28.60;42.10;;;;;;4994291;28;20449;-73
2023/07/02 15:10:31;;;;;;;5.97;5.47;;;28.60;42.40;;;;;;4993990;28;20943;-73
2023/07/02 15:12:58;;;;;;;5.90;5.40;;;28.40;42.50;;;;;;4994233;28;20442;-73
2023/07/02 15:15:24;;;;;;;5.90;5.40;;;28.50;42.10;;;;;;4994365;28;20477;-74
2023/07/02 15:17:51;;;;;;;6.43;5.17;;;28.30;42.70;;;;;;4994244;28;20457;-72
2023/07/02 15:20:18;;;;;;;5.50;5.00;;;28.40;42.40;;;;;;4993829;28;20871;-74
2023/07/02 15:22:45;;;;;;;6.10;5.70;;;28.30;42.50;;;;;;4994001;28;20453;-72
2023/07/02 15:25:13;;;;;;;6.30;5.70;;;28.10;42.70;;;;;;4993974;28;20465;-73
2023/07/02 15:27:39;;;;;;;5.90;5.40;;;28.00;43.00;;;;;;4994050;28;20449;-72
2023/07/02 15:30:07;;;;;;;5.87;5.33;;;28.00;43.90;;;;;;4993660;28;20453;-73
2023/07/02 15:32:34;;;;;;;5.67;5.17;;;28.00;45.10;;;;;;4994048;28;20837;-73
2023/07/02 15:35:01;;;;;;;5.67;5.17;;;28.10;43.20;;;;;;4993562;28;20978;-73
2023/07/02 15:37:27;;;;;;;5.30;4.90;;;28.10;42.70;;;;;;4993849;28;20795;-74
2023/07/02 15:39:55;;;;;;;6.03;5.43;;;27.90;43.00;;;;;;4993530;28;20807;-74
2023/07/02 15:42:37;;;;;;;5.50;5.00;;;28.00;42.90;;;;;;4993514;28;20854;-75
2023/07/02 15:45:37;;;;;;;5.50;5.10;;;28.00;42.50;;;;;;4993314;28;20493;-74
2023/07/02 15:54:48;;;;;;;6.10;5.50;;;27.80;44.40;;;;;;4993452;28;20476;-74
2023/07/02 15:57:15;;;;;;;5.83;5.13;;;28.10;43.40;;;;;;4993711;28;20453;-75
2023/07/02 15:59:43;;;;;;;5.83;5.33;;;28.10;43.50;;;;;;4993624;28;20508;-73
2023/07/02 16:02:10;;;;;;;6.17;5.57;;;27.90;43.50;;;;;;4993673;28;20821;-74
2023/07/02 16:04:36;;;;;;;5.53;5.07;;;27.70;44.00;;;;;;4993610;28;20493;-74
2023/07/02 16:07:03;;;;;;;6.13;5.47;;;27.30;44.50;;;;;;4993402;28;20449;-74
2023/07/02 16:09:30;;;;;;;6.30;5.70;;;27.10;44.40;;;;;;4992789;28;20445;-72
2023/07/02 16:11:57;;;;;;;5.87;5.37;;;27.10;44.70;;;;;;4993124;28;20507;-75
2023/07/02 16:14:23;;;;;;;5.50;5.00;;;26.90;45.20;;;;;;4993302;28;20499;-75
2023/07/02 16:16:54;;;;;;;6.37;5.50;;;26.90;45.40;;;;;;4994164;28;20430;-75
2023/07/02 16:19:21;;;;;;;6.03;5.53;;;26.90;45.50;;;;;;4993872;28;20445;-75
2023/07/02 16:21:48;;;;;;;5.77;5.27;;;26.90;45.70;;;;;;4993576;28;20445;-76
2023/07/02 16:24:23;;;;;;;6.47;5.87;;;27.00;45.80;;;;;;4993042;28;20878;-75
2023/07/02 16:26:50;;;;;;;6.40;5.47;;;26.90;45.80;;;;;;4993598;28;20476;-75
2023/07/02 16:29:17;;;;;;;6.57;5.97;;;26.90;46.00;;;;;;4993581;28;20450;-75
2023/07/02 16:31:45;;;;;;;6.33;5.60;;;26.70;45.40;;;;;;4993417;28;20817;-74
2023/07/02 16:34:14;;;;;;;6.23;5.63;;;26.60;45.50;;;;;;4993349;28;20448;-75
2023/07/02 16:36:42;;;;;;;6.63;5.23;;;26.50;45.80;;;;;;4993204;28;21037;-74
2023/07/02 16:39:09;;;;;;;6.70;6.10;;;26.40;45.90;;;;;;4993391;28;20484;-73
2023/07/02 16:41:39;;;;;;;5.90;5.40;;;26.40;46.60;;;;;;4994138;28;20449;-74
2023/07/02 16:44:06;;;;;;;6.23;5.03;;;26.30;46.20;;;;;;4996638;28;20575;-75
2023/07/02 16:46:33;;;;;;;5.40;4.60;;;26.30;47.10;;;;;;4996911;28;20849;-75
2023/07/02 16:49:00;;;;;;;5.40;4.90;;;26.10;46.30;;;;;;4996808;28;20460;-75
2023/07/02 16:51:28;;;;;;;5.40;4.90;;;25.90;47.60;;;;;;4996845;28;20474;-74
2023/07/02 16:53:55;;;;;;;5.53;5.03;;;25.90;47.60;;;;;;4996905;28;20500;-73
2023/07/02 16:56:21;;;;;;;6.13;5.63;;;26.10;48.00;;;;;;4996690;28;20476;-73
2023/07/02 16:58:48;;;;;;;6.73;5.70;;;26.10;48.00;;;;;;4996829;28;20441;-74